Time;durP1;ratioP1;P1;durP2;ratioP2;P2;SDS_P1;SDS_P2;PMS_P1;PMS_P2;Temp;Humidity;BMP_temperature;BMP_pressure;BME280_temperature;BME280_humidity;BME280_pressure;Samples;Min_cycle;Max_cycle;Signal;HPM_P1;HPM_P2
2022/10/06 04:32:14;;;;;;;;;1.00;1.00;;;;;14.35;63.46;102572.91;3298365;26;46119;-73
2022/10/06 04:34:39;;;;;;;;;2.75;1.00;;;;;14.34;63.54;102568.44;5016866;28;46199;-73
2022/10/06 04:37:05;;;;;;;;;2.75;1.50;;;;;14.36;63.54;102577.38;5034930;28;45504;-73
2022/10/06 04:39:31;;;;;;;;;2.00;2.00;;;;;14.26;63.63;102570.50;5035782;28;45486;-73
2022/10/06 04:41:56;;;;;;;;;5.00;2.75;;;;;14.29;63.67;102584.78;5035187;28;45336;-75
2022/10/06 04:44:21;;;;;;;;;3.50;1.00;;;;;14.23;63.47;102576.00;5017199;28;46010;-74
2022/10/06 04:46:47;;;;;;;;;1.25;0.25;;;;;14.31;64.07;102584.72;5034601;28;45420;-73
2022/10/06 04:49:12;;;;;;;;;6.25;1.00;;;;;14.37;63.93;102582.72;5034505;28;45403;-73
2022/10/06 04:51:37;;;;;;;;;4.00;1.50;;;;;14.35;63.54;102576.50;5034956;28;45527;-72
2022/10/06 04:54:03;;;;;;;;;7.75;1.50;;;;;14.31;63.90;102564.03;5034699;28;45602;-71
2022/10/06 04:56:30;;;;;;;;;1.25;1.25;;;;;14.45;63.62;102590.63;5033713;28;45517;-74
2022/10/06 04:58:56;;;;;;;;;2.00;2.00;;;;;14.43;63.32;102586.19;5034514;28;45321;-74
2022/10/06 05:01:31;;;;;;;;;5.25;2.00;;;;;14.53;63.58;102602.03;5034723;28;45333;-73
2022/10/06 05:03:58;;;;;;;;;3.50;2.00;;;;;14.43;63.41;102597.00;5034515;28;45332;-74
2022/10/06 05:06:29;;;;;;;;;1.50;1.50;;;;;14.44;63.64;102606.84;5034551;28;45740;-73
2022/10/06 05:09:00;;;;;;;;;2.50;2.25;;;;;14.36;63.55;102593.56;5034625;28;45453;-72
2022/10/06 05:11:27;;;;;;;;;3.00;1.00;;;;;14.37;63.31;102588.09;5034633;28;45343;-74
2022/10/06 05:13:54;;;;;;;;;1.00;1.00;;;;;14.31;63.15;102593.72;5036544;28;45421;-74
2022/10/06 05:16:21;;;;;;;;;2.00;2.00;;;;;14.32;63.29;102591.91;5034314;28;46115;-76
2022/10/06 05:18:46;;;;;;;;;3.75;1.75;;;;;14.26;63.80;102592.97;5034338;28;45290;-74
2022/10/06 05:21:24;;;;;;;;;2.00;0.75;;;;;14.34;63.28;102603.53;5034395;28;45430;-74
2022/10/06 05:23:50;;;;;;;;;2.50;2.25;;;;;14.13;63.60;102580.78;5022453;28;45546;-75
2022/10/06 05:26:19;;;;;;;;;5.00;2.00;;;;;14.17;63.49;102598.66;5034251;28;46210;-75
2022/10/06 05:28:45;;;;;;;;;4.00;1.00;;;;;14.16;63.59;102602.28;5016575;28;45250;-73
2022/10/06 05:31:17;;;;;;;;;2.25;0.00;;;;;14.08;64.06;102606.16;5015808;28;45471;-73
2022/10/06 05:33:43;;;;;;;;;6.75;2.00;;;;;14.09;64.10;102616.91;5034566;28;45447;-73
2022/10/06 05:36:19;;;;;;;;;4.50;2.00;;;;;14.00;63.85;102603.69;5033993;28;45948;-72
2022/10/06 05:38:45;;;;;;;;;3.25;2.75;;;;;13.99;64.10;102619.00;5016566;28;45314;-72
2022/10/06 05:41:23;;;;;;;;;4.00;2.00;;;;;13.95;64.55;102616.44;5016219;28;45432;-69
2022/10/06 05:43:50;;;;;;;;;4.25;1.00;;;;;13.78;64.67;102602.59;5034156;28;45253;-73
2022/10/06 05:46:24;;;;;;;;;2.00;2.00;;;;;13.85;64.49;102632.00;5015927;28;47962;-70
2022/10/06 05:48:53;;;;;;;;;4.75;1.75;;;;;13.82;64.59;102623.13;5034020;28;45233;-70
2022/10/06 05:51:19;;;;;;;;;3.00;2.00;;;;;13.81;64.73;102630.31;5046250;28;45327;-75
2022/10/06 05:53:45;;;;;;;;;4.75;1.50;;;;;13.80;64.74;102638.44;5015946;28;45981;-73
2022/10/06 05:56:20;;;;;;;;;2.25;1.00;;;;;13.77;64.67;102634.06;5033819;28;46200;-72
2022/10/06 05:58:48;;;;;;;;;3.00;2.00;;;;;13.79;64.87;102644.75;5033681;28;45301;-73
2022/10/06 06:01:25;;;;;;;;;3.00;2.00;;;;;13.77;64.51;102643.94;5033677;28;45258;-73
2022/10/06 06:04:02;;;;;;;;;4.50;2.00;;;;;13.67;64.73;102631.66;5033470;28;45568;-73
2022/10/06 06:06:39;;;;;;;;;1.25;1.00;;;;;13.60;64.98;102628.25;5033686;28;46115;-73
2022/10/06 06:09:12;;;;;;;;;4.00;2.00;;;;;13.70;65.10;102643.22;5036296;28;45407;-73
2022/10/06 06:11:40;;;;;;;;;3.00;2.00;;;;;13.72;64.93;102645.88;5019229;28;45404;-74
2022/10/06 06:14:08;;;;;;;;;3.00;1.25;;;;;13.79;64.80;102644.75;5036200;28;45438;-72
2022/10/06 06:16:35;;;;;;;;;2.75;1.50;;;;;13.65;64.75;102620.91;5036283;28;45548;-73
2022/10/06 06:19:01;;;;;;;;;1.25;1.25;;;;;13.75;65.23;102637.72;5036741;28;45345;-73
2022/10/06 06:21:28;;;;;;;;;5.00;2.75;;;;;13.84;64.72;102648.22;5037668;28;45426;-73
2022/10/06 06:23:53;;;;;;;;;2.00;2.00;;;;;13.85;64.60;102642.81;5037397;28;45423;-72
2022/10/06 06:26:24;;;;;;;;;2.25;1.75;;;;;13.96;64.17;102667.63;5037034;28;45652;-73
2022/10/06 06:28:52;;;;;;;;;1.50;1.50;;;;;13.87;64.32;102648.13;5037894;28;45519;-73
2022/10/06 06:31:25;;;;;;;;;5.00;4.75;;;;;13.97;64.45;102669.38;5037558;28;45428;-73
2022/10/06 06:33:52;;;;;;;;;3.75;1.25;;;;;13.91;64.41;102674.97;5037447;28;45573;-73
2022/10/06 06:36:34;;;;;;;;;1.00;1.00;;;;;13.91;64.54;102674.97;5036889;28;45463;-72
2022/10/06 06:39:03;;;;;;;;;2.00;2.00;;;;;13.92;64.69;102668.66;5037011;28;45245;-72
2022/10/06 06:41:30;;;;;;;;;2.25;1.00;;;;;13.92;64.45;102667.75;5036630;28;45394;-73
2022/10/06 06:43:58;;;;;;;;;2.75;2.00;;;;;13.95;64.58;102678.47;5036829;28;45446;-72
2022/10/06 06:46:26;;;;;;;;;5.75;4.75;;;;;13.96;64.33;102682.91;5036368;28;46091;-73
2022/10/06 06:48:53;;;;;;;;;5.50;2.50;;;;;14.02;64.31;102680.94;5036603;28;45408;-72
2022/10/06 06:51:21;;;;;;;;;4.25;1.75;;;;;13.99;63.94;102689.09;5036451;28;45352;-73
2022/10/06 06:53:47;;;;;;;;;2.50;2.00;;;;;13.87;64.13;102665.19;5036659;28;45412;-72
2022/10/06 06:56:12;;;;;;;;;2.00;2.00;;;;;13.96;63.89;102677.50;5036632;28;46134;-72
2022/10/06 06:58:38;;;;;;;;;1.00;1.00;;;;;14.01;63.72;102692.66;5036356;28;45318;-72
2022/10/06 07:01:12;;;;;;;;;4.00;2.50;;;;;14.09;64.14;102699.63;5036898;28;45234;-72
2022/10/06 07:03:39;;;;;;;;;3.00;2.50;;;;;14.06;63.95;102687.09;5036278;28;45212;-74
2022/10/06 07:06:08;;;;;;;;;3.75;2.75;;;;;14.14;63.51;102697.66;5035991;28;45494;-72
2022/10/06 07:08:35;;;;;;;;;5.25;2.25;;;;;14.11;64.14;102695.97;5034466;28;45395;-73
2022/10/06 07:11:13;;;;;;;;;3.50;2.00;;;;;14.27;64.10;102721.56;5036370;28;45348;-72
2022/10/06 07:13:39;;;;;;;;;1.00;1.00;;;;;14.29;63.45;102719.66;5036434;28;45630;-74
2022/10/06 07:27:01;;;;;;;;;4.25;1.75;;;;;14.06;63.71;102719.47;5035912;28;45478;-72
2022/10/06 07:29:26;;;;;;;;;2.50;1.00;;;;;14.13;63.75;102734.53;5036052;28;45387;-72
2022/10/06 07:31:53;;;;;;;;;3.00;2.00;;;;;14.16;63.57;102734.47;5036110;28;45231;-73
2022/10/06 07:34:18;;;;;;;;;4.25;3.00;;;;;14.10;64.00;102733.78;5018222;28;45428;-72
2022/10/06 07:36:47;;;;;;;;;4.00;1.75;;;;;14.11;63.41;102740.94;5036129;28;45284;-73
2022/10/06 07:39:13;;;;;;;;;4.00;4.00;;;;;14.10;63.87;102736.47;5018160;28;45404;-73
2022/10/06 07:41:38;;;;;;;;;2.00;2.00;;;;;14.08;63.85;102728.41;5036240;28;45318;-72
2022/10/06 07:44:04;;;;;;;;;1.75;1.00;;;;;14.19;64.10;102749.69;5035960;28;45615;-71
2022/10/06 07:46:30;;;;;;;;;2.25;2.25;;;;;14.17;63.80;102740.75;5035867;28;45418;-73
2022/10/06 07:48:55;;;;;;;;;4.50;3.00;;;;;14.21;63.40;102745.09;5035846;28;45284;-73
2022/10/06 07:51:23;;;;;;;;;3.75;2.25;;;;;14.25;63.57;102746.81;5035606;28;45819;-73
2022/10/06 07:53:52;;;;;;;;;2.00;2.00;;;;;14.30;63.53;102752.94;5035838;28;45411;-74
2022/10/06 07:56:21;;;;;;;;;7.25;2.00;;;;;14.35;63.47;102757.28;5035722;28;46248;-73
2022/10/06 07:58:48;;;;;;;;;3.75;3.00;;;;;14.43;63.36;102761.59;5035590;28;45735;-73
2022/10/06 08:01:16;;;;;;;;;1.75;1.75;;;;;14.50;63.41;102766.78;5035959;28;45281;-74
2022/10/06 08:03:43;;;;;;;;;3.00;2.00;;;;;14.54;63.08;102756.78;5035388;28;45280;-73
2022/10/06 08:06:12;;;;;;;;;5.00;3.25;;;;;14.62;63.45;102771.81;5035552;28;45352;-72
2022/10/06 08:08:39;;;;;;;;;2.00;2.00;;;;;14.70;63.13;102775.16;5036233;28;45332;-73
2022/10/06 08:11:06;;;;;;;;;5.25;4.00;;;;;14.61;62.55;102751.13;5036193;28;45222;-73
2022/10/06 08:13:34;;;;;;;;;5.00;2.00;;;;;14.77;62.54;102765.94;5018775;28;45522;-73
2022/10/06 08:16:10;;;;;;;;;2.25;2.00;;;;;14.89;61.95;102775.44;5036997;28;45492;-73
2022/10/06 08:18:36;;;;;;;;;3.50;3.00;;;;;14.93;62.40;102776.25;5036872;28;45441;-72
2022/10/06 08:21:13;;;;;;;;;5.75;4.25;;;;;15.05;62.06;102778.56;5036658;28;45415;-72
2022/10/06 08:23:43;;;;;;;;;4.75;2.00;;;;;15.02;61.91;102771.44;5035034;28;45483;-73
2022/10/06 08:26:10;;;;;;;;;2.50;2.50;;;;;15.15;61.57;102775.50;5034900;28;45514;-72
2022/10/06 08:28:36;;;;;;;;;2.25;2.25;;;;;15.21;61.47;102787.06;5035344;28;45188;-73
2022/10/06 08:31:10;;;;;;;;;1.25;1.25;;;;;15.25;61.51;102780.59;5033658;28;45228;-72
2022/10/06 08:33:37;;;;;;;;;4.75;2.75;;;;;15.25;61.41;102777.91;5035346;28;45533;-73
2022/10/06 08:36:07;;;;;;;;;4.00;2.00;;;;;15.38;60.89;102788.25;5034773;28;47053;-72
2022/10/06 08:38:35;;;;;;;;;2.00;1.00;;;;;15.39;60.32;102795.44;5035156;28;45308;-73
2022/10/06 08:41:01;;;;;;;;;4.00;2.00;;;;;15.41;60.64;102798.06;5034974;28;45249;-73
2022/10/06 08:43:29;;;;;;;;;1.75;1.75;;;;;15.42;60.92;102786.31;5035262;28;45448;-73
2022/10/06 08:46:00;;;;;;;;;4.25;2.00;;;;;15.52;60.37;102796.78;5034938;28;46286;-73
2022/10/06 08:48:35;;;;;;;;;1.25;1.25;;;;;15.64;60.38;102808.16;5035335;28;46389;-74
2022/10/06 08:51:42;;;;;;;;;2.00;0.00;;;;;15.71;60.35;102805.19;5035080;28;45421;-72
2022/10/06 08:54:17;;;;;;;;;4.50;3.50;;;;;15.75;59.78;102814.94;5034528;28;45546;-74
2022/10/06 08:57:15;;;;;;;;;4.25;1.00;;;;;15.78;59.87;102817.56;5034381;28;45348;-72
2022/10/06 08:59:45;;;;;;;;;3.00;1.00;;;;;15.76;59.72;102807.72;5027286;28;45479;-73
2022/10/06 09:02:29;;;;;;;;;3.25;1.50;;;;;15.85;59.68;102816.41;5034916;28;45353;-74
2022/10/06 09:04:59;;;;;;;;;1.25;1.00;;;;;15.86;59.38;102814.59;5034604;28;45342;-73
2022/10/06 09:07:37;;;;;;;;;1.25;1.25;;;;;15.91;59.16;102809.88;5016272;28;46185;-74
2022/10/06 09:10:23;;;;;;;;;0.50;0.50;;;;;15.95;59.35;102807.97;5034214;28;45396;-73
2022/10/06 09:12:56;;;;;;;;;5.25;1.25;;;;;16.05;59.18;102820.25;5034614;28;45293;-73
2022/10/06 09:15:43;;;;;;;;;5.75;1.75;;;;;16.08;59.24;102812.88;5034266;28;45315;-73
2022/10/06 09:18:30;;;;;;;;;3.50;3.00;;;;;15.98;58.82;102802.47;5034165;28;46275;-74
2022/10/06 09:21:01;;;;;;;;;4.00;1.50;;;;;16.05;59.42;102820.25;5016481;28;45431;-74
2022/10/06 09:23:46;;;;;;;;;7.25;3.00;;;;;16.10;59.42;102816.41;5032310;28;45350;-73
2022/10/06 09:26:14;;;;;;;;;2.50;2.00;;;;;16.14;59.05;102819.91;5033849;28;45359;-73
2022/10/06 09:28:40;;;;;;;;;2.50;1.75;;;;;16.21;58.66;102814.22;5034392;28;46338;-70
2022/10/06 09:31:27;;;;;;;;;2.00;1.00;;;;;16.26;58.67;102817.63;5034261;28;45393;-72
2022/10/06 09:34:03;;;;;;;;;4.50;2.00;;;;;16.25;58.29;102813.16;5034646;28;45552;-72
2022/10/06 09:36:30;;;;;;;;;1.50;1.00;;;;;16.30;58.86;102814.81;5034189;28;45356;-73
2022/10/06 09:38:57;;;;;;;;;3.25;2.00;;;;;16.33;58.39;102818.31;5034166;28;46106;-73
2022/10/06 09:41:39;;;;;;;;;2.00;2.00;;;;;16.34;58.55;102817.34;5033716;28;45372;-73
2022/10/06 09:44:19;;;;;;;;;2.00;2.00;;;;;16.31;58.85;102797.63;5033201;28;45450;-72
2022/10/06 09:46:45;;;;;;;;;1.50;1.50;;;;;16.39;58.53;102807.25;5035662;28;45355;-73
2022/10/06 09:49:30;;;;;;;;;2.25;2.25;;;;;16.49;58.58;102805.97;5036496;28;45479;-73
2022/10/06 09:52:11;;;;;;;;;3.50;1.00;;;;;16.59;58.33;102814.59;5036899;28;45305;-74
2022/10/06 09:54:40;;;;;;;;;5.75;2.75;;;;;16.58;57.69;102807.44;5037705;28;45344;-72
2022/10/06 09:57:15;;;;;;;;;1.75;1.75;;;;;16.59;57.76;102807.34;5037742;28;45466;-73
2022/10/06 09:59:43;;;;;;;;;4.50;1.50;;;;;16.63;58.18;102809.06;5038088;28;45645;-72
2022/10/06 10:02:23;;;;;;;;;4.75;1.00;;;;;16.69;58.04;102801.63;5038201;28;45451;-73
2022/10/06 10:04:54;;;;;;;;;3.50;2.50;;;;;16.71;58.08;102792.50;5019721;28;45354;-73
2022/10/06 10:07:24;;;;;;;;;1.00;1.00;;;;;16.90;57.38;102817.03;5037396;28;45278;-73
2022/10/06 10:09:53;;;;;;;;;3.00;3.00;;;;;16.87;57.37;102798.19;5037422;28;45528;-73
2022/10/06 10:12:23;;;;;;;;;2.00;1.00;;;;;16.98;57.28;102810.38;5037096;28;45376;-72
2022/10/06 10:14:49;;;;;;;;;3.00;1.00;;;;;17.06;57.33;102803.78;5036410;28;45642;-73
2022/10/06 10:17:43;;;;;;;;;3.00;1.00;;;;;17.13;56.66;102808.00;5036449;28;45531;-74
2022/10/06 10:20:23;;;;;;;;;3.00;1.25;;;;;17.22;56.94;102805.78;5030068;28;45599;-73
2022/10/06 10:22:51;;;;;;;;;2.25;1.50;;;;;17.24;56.25;102792.19;5037225;28;45391;-73
2022/10/06 10:25:32;;;;;;;;;2.00;2.00;;;;;17.35;55.75;102798.91;5018753;28;45442;-72
2022/10/06 10:27:58;;;;;;;;;4.50;1.50;;;;;17.48;55.31;102804.72;5035116;28;46152;-71
2022/10/06 10:30:23;;;;;;;;;1.50;1.50;;;;;17.59;54.79;102804.28;5017529;28;46427;-72
2022/10/06 10:33:14;;;;;;;;;2.50;2.50;;;;;17.64;53.77;102792.31;5035859;28;45270;-73
2022/10/06 10:35:45;;;;;;;;;2.75;1.00;;;;;17.68;53.73;102791.22;5018642;28;45309;-73
2022/10/06 10:38:22;;;;;;;;;1.00;1.00;;;;;17.74;53.55;102780.09;5036328;28;45309;-73
2022/10/06 10:40:59;;;;;;;;;3.00;1.50;;;;;17.93;52.89;102801.91;5036161;28;45517;-73
2022/10/06 10:43:30;;;;;;;;;1.00;1.00;;;;;18.00;53.07;102794.34;5018783;28;45362;-72
2022/10/06 10:46:17;;;;;;;;;1.50;1.00;;;;;18.10;53.39;102796.59;5036807;28;45250;-73
2022/10/06 10:49:00;;;;;;;;;2.00;2.00;;;;;18.19;52.85;102795.31;5036655;28;45446;-72
2022/10/06 10:51:50;;;;;;;;;4.25;1.00;;;;;18.30;52.34;102797.50;5036439;28;45288;-74
2022/10/06 10:54:41;;;;;;;;;1.50;1.50;;;;;18.39;52.28;102776.25;5035588;28;45208;-73
2022/10/06 10:57:15;;;;;;;;;6.00;1.50;;;;;18.70;51.83;102794.75;5036346;28;45347;-73
2022/10/06 11:00:03;;;;;;;;;5.00;0.00;;;;;18.82;50.92;102777.84;5036174;28;45478;-71
2022/10/06 11:02:29;;;;;;;;;2.00;1.00;;;;;19.08;50.02;102787.47;5036877;28;47024;-73
2022/10/06 11:05:15;;;;;;;;;1.00;1.00;;;;;19.33;49.43;102784.41;5036805;28;45396;-74
2022/10/06 11:07:57;;;;;;;;;3.50;2.50;;;;;19.33;49.56;102787.13;5036772;28;45341;-72
2022/10/06 11:10:31;;;;;;;;;2.00;2.00;;;;;19.34;48.89;102780.72;5036056;28;45661;-72
2022/10/06 11:13:22;;;;;;;;;1.50;1.50;;;;;19.26;47.52;102781.13;5018323;28;46188;-73
2022/10/06 11:16:13;;;;;;;;;2.75;1.00;;;;;19.19;47.93;102784.22;5036429;28;45474;-72
2022/10/06 11:18:49;;;;;;;;;2.00;0.75;;;;;19.14;46.87;102784.44;5035642;28;45329;-73
2022/10/06 11:21:40;;;;;;;;;3.00;3.00;;;;;19.10;47.83;102784.69;5035290;28;45502;-74
2022/10/06 11:24:33;;;;;;;;;1.50;1.50;;;;;19.31;47.15;102788.19;5012395;28;46218;-73
2022/10/06 11:26:58;;;;;;;;;0.00;0.00;;;;;20.19;45.48;102781.75;5035957;28;45392;-74
2022/10/06 11:29:45;;;;;;;;;2.50;1.00;;;;;21.01;42.83;102765.38;5036139;28;45353;-73
2022/10/06 11:32:21;;;;;;;;;1.25;1.00;;;;;21.79;41.82;102769.81;5036046;28;45368;-72
2022/10/06 11:34:48;;;;;;;;;1.00;1.00;;;;;22.63;40.67;102770.91;5036453;28;45363;-73
2022/10/06 11:37:34;;;;;;;;;3.75;0.75;;;;;22.60;39.25;102741.94;5036553;28;45459;-73
2022/10/06 11:40:09;;;;;;;;;1.25;1.25;;;;;22.95;38.81;102771.59;5036758;28;45408;-74
2022/10/06 11:43:11;;;;;;;;;2.00;1.50;;;;;23.67;36.73;102741.13;5036482;28;45359;-74
2022/10/06 11:45:52;;;;;;;;;0.75;0.75;;;;;24.78;35.48;102741.31;5026316;28;45514;-74
2022/10/06 11:48:29;;;;;;;;;1.75;0.75;;;;;26.07;33.63;102746.97;5036263;28;45436;-72
2022/10/06 11:50:56;;;;;;;;;2.50;1.50;;;;;27.19;31.40;102734.06;5017614;28;45456;-72
2022/10/06 11:53:30;;;;;;;;;1.00;1.00;;;;;28.45;29.29;102745.03;5017648;28;46184;-72
2022/10/06 11:56:35;;;;;;;;;2.00;1.00;;;;;29.58;27.55;102740.97;5035379;28;46883;-73
2022/10/06 11:59:11;;;;;;;;;3.75;1.25;;;;;30.90;26.74;102737.25;5008573;28;45298;-72
2022/10/06 12:01:37;;;;;;;;;2.25;0.00;;;;;31.73;24.88;102734.16;5035927;28;45344;-72
2022/10/06 12:04:09;;;;;;;;;1.00;1.00;;;;;31.88;24.77;102723.38;5017521;28;47232;-73
2022/10/06 12:06:46;;;;;;;;;2.00;1.00;;;;;31.50;25.28;102738.44;5035170;28;45304;-73
2022/10/06 12:09:24;;;;;;;;;3.00;1.33;;;;;30.33;26.07;102723.50;5035859;28;45450;-73
2022/10/06 12:11:55;;;;;;;;;3.50;1.75;;;;;30.04;26.69;102731.88;5035221;28;45430;-72
2022/10/06 12:14:50;;;;;;;;;1.00;1.00;;;;;30.41;25.74;102718.09;5035400;28;47027;-73
2022/10/06 12:17:34;;;;;;;;;5.33;1.00;;;;;31.17;24.78;102726.16;5035511;28;45361;-73
2022/10/06 12:20:33;;;;;;;;;2.00;0.00;;;;;32.01;23.65;102715.47;5035228;28;45368;-72
2022/10/06 12:23:07;;;;;;;;;1.75;1.75;;;;;32.52;22.26;102714.59;5017146;28;45434;-73
2022/10/06 12:25:52;;;;;;;;;2.67;1.00;;;;;32.77;21.66;102712.78;5035211;28;45392;-72
2022/10/06 12:28:30;;;;;;;;;1.75;0.00;;;;;33.43;21.17;102706.38;5035051;28;46705;-73
2022/10/06 12:31:13;;;;;;;;;2.00;1.00;;;;;34.14;20.83;102706.50;5017076;28;45362;-74
2022/10/06 12:33:41;;;;;;;;;1.67;1.00;;;;;34.82;20.00;102705.06;5035605;28;45483;-74
2022/10/06 12:36:22;;;;;;;;;0.50;0.50;;;;;35.35;18.93;102704.22;5035066;28;45229;-74
2022/10/06 12:39:00;;;;;;;;;1.75;1.00;;;;;35.30;18.74;102698.34;5035000;28;45410;-73
2022/10/06 12:42:00;;;;;;;;;1.25;0.00;;;;;34.86;18.87;102698.97;5034624;28;45451;-74
2022/10/06 12:44:54;;;;;;;;;0.50;0.00;;;;;34.92;19.33;102684.28;5034951;28;45316;-73
2022/10/06 12:47:33;;;;;;;;;1.75;1.00;;;;;35.24;19.14;102676.75;5021541;28;45392;-73
2022/10/06 12:50:25;;;;;;;;;2.00;1.00;;;;;34.43;19.35;102675.28;5034977;28;46202;-74
2022/10/06 12:53:03;;;;;;;;;0.00;0.00;;;;;34.16;19.78;102672.91;5034320;28;45494;-74
2022/10/06 12:55:51;;;;;;;;;0.00;0.00;;;;;34.06;19.08;102678.69;5034911;28;45390;-74
2022/10/06 12:58:19;;;;;;;;;2.00;0.00;;;;;34.18;19.07;102680.06;5034989;28;45252;-72
2022/10/06 13:00:46;;;;;;;;;0.00;0.00;;;;;34.07;19.34;102682.34;5034752;28;45462;-73
2022/10/06 13:03:18;;;;;;;;;2.00;0.25;;;;;34.43;19.71;102672.50;5016897;28;45250;-73
2022/10/06 13:05:50;;;;;;;;;3.50;0.75;;;;;34.56;18.37;102674.69;5034689;28;45800;-73
2022/10/06 13:08:27;;;;;;;;;0.00;0.00;;;;;33.71;19.33;102662.38;5034626;28;45384;-72
2022/10/06 13:11:14;;;;;;;;;0.00;0.00;;;;;33.16;20.20;102667.75;5050268;28;48556;-73
2022/10/06 13:13:54;;;;;;;;;0.00;0.00;;;;;33.39;20.34;102660.47;5034824;28;45337;-74
2022/10/06 13:16:23;;;;;;;;;1.00;0.50;;;;;33.27;20.10;102656.28;5016246;28;45342;-74
2022/10/06 13:18:54;;;;;;;;;1.33;1.00;;;;;32.70;20.18;102658.97;5016816;28;46175;-73
2022/10/06 13:21:19;;;;;;;;;0.33;0.00;;;;;32.33;20.87;102655.69;5034070;28;45485;-72
2022/10/06 13:23:46;;;;;;;;;2.00;2.00;;;;;32.45;20.69;102646.00;5016238;28;45408;-74
2022/10/06 13:26:12;;;;;;;;;2.00;0.75;;;;;33.00;20.10;102652.78;5016375;28;45336;-72
2022/10/06 13:28:43;;;;;;;;;1.67;0.33;;;;;33.37;19.36;102641.19;5034471;28;45282;-72
2022/10/06 13:31:21;;;;;;;;;1.33;1.00;;;;;33.23;20.01;102643.81;5033999;28;46365;-73
2022/10/06 13:34:04;;;;;;;;;0.00;0.00;;;;;33.32;19.72;102645.53;5034492;28;45208;-72
2022/10/06 13:36:32;;;;;;;;;2.00;0.00;;;;;32.85;19.67;102642.50;5049084;28;45403;-73
2022/10/06 13:38:59;;;;;;;;;1.00;1.00;;;;;32.96;20.38;102634.72;5034439;28;45569;-72
2022/10/06 13:41:29;;;;;;;;;0.67;0.00;;;;;33.01;20.12;102646.16;5034259;28;46103;-71
2022/10/06 13:44:06;;;;;;;;;2.00;1.00;;;;;33.34;19.97;102635.13;5033826;28;45350;-72
2022/10/06 13:46:38;;;;;;;;;1.00;0.00;;;;;33.61;20.48;102628.28;5034388;28;45533;-73
2022/10/06 13:49:30;;;;;;;;;2.00;0.25;;;;;34.05;20.16;102632.41;5034005;28;45406;-73
2022/10/06 13:51:59;;;;;;;;;0.00;0.00;;;;;34.42;19.36;102623.41;5033812;28;46042;-73
2022/10/06 13:54:45;;;;;;;;;1.25;1.00;;;;;34.61;18.85;102630.47;5015987;28;45276;-73
2022/10/06 13:57:34;;;;;;;;;1.50;0.00;;;;;34.53;19.12;102622.16;5034133;28;45319;-73
2022/10/06 14:00:24;;;;;;;;;0.00;0.00;;;;;34.25;18.11;102624.53;5033923;28;45553;-73
2022/10/06 14:02:52;;;;;;;;;1.75;0.50;;;;;33.80;19.43;102616.81;5005711;28;45455;-72
2022/10/06 14:05:22;;;;;;;;;2.00;0.00;;;;;33.82;19.25;102619.44;5033795;28;45163;-73
2022/10/06 14:07:48;;;;;;;;;1.00;0.00;;;;;33.66;19.49;102610.03;5016204;28;45455;-73
2022/10/06 14:10:20;;;;;;;;;1.50;0.00;;;;;33.52;18.94;102619.09;5033365;28;45409;-73
2022/10/06 14:12:46;;;;;;;;;0.50;0.00;;;;;33.36;19.50;102614.41;5033887;28;45945;-73
2022/10/06 14:15:17;;;;;;;;;2.00;0.00;;;;;33.13;19.53;102610.56;5033748;28;45560;-73
2022/10/06 14:17:43;;;;;;;;;1.50;1.00;;;;;33.26;19.31;102616.50;5034174;28;45217;-72
2022/10/06 14:20:34;;;;;;;;;4.50;1.00;;;;;33.30;20.61;102612.34;5033739;28;45534;-72
2022/10/06 14:23:00;;;;;;;;;1.00;0.00;;;;;33.23;19.60;102586.28;5026205;28;45533;-72
2022/10/06 14:25:25;;;;;;;;;1.00;1.00;;;;;33.37;20.13;102607.81;5033541;28;45415;-73
2022/10/06 14:27:51;;;;;;;;;0.75;0.75;;;;;33.38;19.76;102603.13;5034228;28;45365;-73
2022/10/06 14:30:16;;;;;;;;;3.75;0.00;;;;;33.29;19.07;102591.13;5037434;28;45315;-74
2022/10/06 14:32:42;;;;;;;;;0.00;0.00;;;;;33.27;19.23;102600.69;5036607;28;45341;-72
2022/10/06 14:35:10;;;;;;;;;2.75;0.25;;;;;32.89;19.32;102597.53;5036926;28;45483;-73
2022/10/06 14:37:35;;;;;;;;;1.00;1.00;;;;;32.49;19.34;102591.88;5036738;28;45470;-72
2022/10/06 14:40:01;;;;;;;;;1.00;1.00;;;;;32.28;19.62;102595.09;5036803;28;45300;-73
2022/10/06 14:42:26;;;;;;;;;2.25;0.00;;;;;32.24;19.68;102604.81;5036945;28;45522;-72
2022/10/06 14:44:51;;;;;;;;;0.75;0.75;;;;;31.92;19.59;102599.91;5037082;28;45426;-73
2022/10/06 14:47:17;;;;;;;;;1.25;0.75;;;;;31.68;20.40;102608.97;5037183;28;45430;-74
2022/10/06 14:49:44;;;;;;;;;2.67;0.00;;;;;31.47;20.04;102602.91;5037326;28;45621;-73
2022/10/06 14:52:10;;;;;;;;;2.00;0.50;;;;;31.50;20.52;102605.34;5036481;28;46087;-71
2022/10/06 14:54:36;;;;;;;;;5.75;0.75;;;;;31.56;20.96;102602.78;5036772;28;45462;-72
2022/10/06 14:57:02;;;;;;;;;1.00;0.00;;;;;31.65;20.98;102597.31;5036491;28;45478;-72
2022/10/06 14:59:27;;;;;;;;;0.75;0.75;;;;;31.52;20.15;102581.97;5036799;28;45444;-72
2022/10/06 15:01:53;;;;;;;;;0.50;0.00;;;;;31.50;19.78;102585.94;5036548;28;47165;-73
2022/10/06 15:04:22;;;;;;;;;1.00;1.00;;;;;31.35;20.29;102588.44;5036683;28;45179;-72
2022/10/06 15:09:31;;;;;;;;;2.75;1.00;;;;;31.27;20.76;102580.06;5036340;28;45242;-73
2022/10/06 15:11:58;;;;;;;;;0.75;0.00;;;;;31.12;20.94;102574.25;5035923;28;45407;-74
2022/10/06 15:14:23;;;;;;;;;1.00;0.00;;;;;30.83;21.04;102559.72;5036501;28;45447;-76
2022/10/06 15:16:50;;;;;;;;;1.50;1.00;;;;;30.68;21.48;102580.72;5036487;28;45367;-73
2022/10/06 15:19:15;;;;;;;;;5.75;0.00;;;;;30.50;21.37;102577.88;5036583;28;45475;-77
2022/10/06 15:21:45;;;;;;;;;1.25;1.25;;;;;30.38;22.03;102576.34;5018087;28;46179;-73
2022/10/06 15:24:16;;;;;;;;;0.50;0.00;;;;;30.06;21.77;102576.84;5036347;28;45332;-73
2022/10/06 15:29:26;;;;;;;;;1.00;1.00;;;;;29.33;22.51;102562.78;5036112;28;45258;-74
2022/10/06 15:31:53;;;;;;;;;0.00;0.00;;;;;28.93;22.35;102562.97;5017867;28;46379;-71
2022/10/06 15:34:27;;;;;;;;;2.25;0.00;;;;;28.70;23.90;102555.09;5036086;28;45365;-73
2022/10/06 15:36:54;;;;;;;;;0.00;0.00;;;;;28.63;23.63;102557.56;5036233;28;45380;-73
2022/10/06 15:39:23;;;;;;;;;1.00;0.00;;;;;28.53;23.60;102545.63;5035251;28;45495;-72
2022/10/06 15:41:49;;;;;;;;;1.00;0.75;;;;;28.38;23.92;102549.81;5035807;28;45394;-73
2022/10/06 15:44:15;;;;;;;;;0.00;0.00;;;;;28.14;23.69;102534.50;5035761;28;45355;-72
2022/10/06 15:46:44;;;;;;;;;0.25;0.00;;;;;27.96;24.16;102525.16;5036066;28;45293;-73
2022/10/06 15:49:12;;;;;;;;;1.00;0.00;;;;;27.67;24.44;102538.81;5035839;28;45339;-74
2022/10/06 15:51:45;;;;;;;;;3.50;2.00;;;;;27.47;24.19;102548.00;5035508;28;46284;-73
2022/10/06 15:54:11;;;;;;;;;2.75;0.00;;;;;26.98;24.65;102518.38;5018667;28;45321;-73
2022/10/06 15:56:37;;;;;;;;;2.50;1.50;;;;;27.00;25.45;102543.91;5035697;28;45557;-72
2022/10/06 15:59:03;;;;;;;;;0.50;0.50;;;;;26.78;25.25;102547.63;5035552;28;45495;-74
2022/10/06 16:01:30;;;;;;;;;1.50;0.50;;;;;26.70;25.69;102537.28;5035439;28;46462;-72
2022/10/06 16:03:57;;;;;;;;;1.25;0.00;;;;;26.57;25.89;102532.94;5033983;28;45460;-73
2022/10/06 16:06:42;;;;;;;;;0.50;0.00;;;;;26.51;26.14;102534.34;5034622;28;45392;-73
2022/10/06 16:09:09;;;;;;;;;0.75;0.75;;;;;26.39;26.65;102543.59;5035426;28;45796;-73
2022/10/06 16:11:35;;;;;;;;;0.00;0.00;;;;;26.26;27.46;102542.91;5034813;28;46250;-71
2022/10/06 16:14:01;;;;;;;;;3.00;0.50;;;;;26.06;27.33;102539.03;5035104;28;45277;-72
2022/10/06 16:16:26;;;;;;;;;1.00;1.00;;;;;25.90;27.65;102536.69;5033201;28;45404;-75
2022/10/06 16:18:52;;;;;;;;;1.75;0.75;;;;;25.73;27.38;102530.81;5034599;28;45486;-73
2022/10/06 16:21:17;;;;;;;;;0.75;0.75;;;;;25.39;27.33;102533.53;5034857;28;45403;-72
2022/10/06 16:23:43;;;;;;;;;0.00;0.00;;;;;25.14;27.50;102540.09;5035238;28;45336;-73
2022/10/06 16:26:08;;;;;;;;;0.75;0.75;;;;;24.87;28.22;102536.72;5050122;28;45439;-73
2022/10/06 16:28:35;;;;;;;;;0.00;0.00;;;;;24.59;28.62;102515.16;5034968;28;45356;-73
2022/10/06 16:31:00;;;;;;;;;2.00;0.25;;;;;24.50;29.12;102541.41;5035011;28;46094;-72
2022/10/06 16:33:25;;;;;;;;;0.75;0.75;;;;;24.41;29.56;102548.47;5035019;28;45334;-73
2022/10/06 16:35:55;;;;;;;;;2.00;0.00;;;;;24.30;30.18;102531.09;5035374;28;45429;-74